Time;durP1;ratioP1;P1;durP2;ratioP2;P2;SDS_P1;SDS_P2;PMS_P1;PMS_P2;Temp;Humidity;BMP_temperature;BMP_pressure;BME280_temperature;BME280_humidity;BME280_pressure;Samples;Min_cycle;Max_cycle;Signal;HPM_P1;HPM_P2
2023/04/12 00:01:02;;;;;;;6.10;1.20;;;9.90;99.90;;;;;;5072367;28;20683;-77
2023/04/12 00:03:32;;;;;;;5.73;1.13;;;10.00;99.90;;;;;;5073699;28;20218;-77
2023/04/12 00:06:02;;;;;;;3.63;1.00;;;9.90;99.90;;;;;;5071116;28;20290;-77
2023/04/12 00:08:31;;;;;;;3.17;0.90;;;10.00;99.90;;;;;;5071978;28;20191;-77
2023/04/12 00:11:06;;;;;;;4.10;0.87;;;10.10;99.90;;;;;;5072135;28;20174;-78
2023/04/12 00:13:32;;;;;;;2.13;0.90;;;10.00;99.90;;;;;;5067833;28;20526;-76
2023/04/12 00:15:58;;;;;;;4.93;1.20;;;10.10;99.90;;;;;;5071825;28;20174;-77
2023/04/12 00:18:23;;;;;;;2.27;0.97;;;10.10;99.90;;;;;;5072031;28;20174;-77
2023/04/12 00:20:51;;;;;;;3.47;1.23;;;10.10;99.90;;;;;;5071241;28;20582;-77
2023/04/12 00:23:18;;;;;;;4.93;1.30;;;10.00;99.90;;;;;;5070124;28;20168;-77
2023/04/12 00:25:44;;;;;;;3.77;1.07;;;9.90;99.90;;;;;;5072548;28;20195;-77
2023/04/12 00:28:10;;;;;;;2.47;1.03;;;10.00;99.90;;;;;;5071579;28;20543;-77
2023/04/12 00:30:40;;;;;;;2.23;1.07;;;10.00;99.90;;;;;;5070808;28;20258;-77
2023/04/12 00:33:07;;;;;;;3.43;1.00;;;10.10;99.90;;;;;;5071307;28;20592;-77
2023/04/12 00:35:32;;;;;;;4.17;1.07;;;10.10;99.90;;;;;;5071385;28;20278;-77
2023/04/12 00:37:58;;;;;;;2.53;0.93;;;10.00;99.90;;;;;;5071556;28;20620;-77
2023/04/12 00:40:24;;;;;;;5.67;1.30;;;10.10;99.90;;;;;;5071050;28;20184;-77
2023/04/12 00:42:51;;;;;;;2.70;1.10;;;10.10;99.90;;;;;;5071855;28;20250;-76
2023/04/12 00:45:17;;;;;;;2.30;1.10;;;10.10;99.90;;;;;;5071023;28;20214;-77
2023/04/12 00:47:43;;;;;;;2.43;1.20;;;10.00;99.90;;;;;;5072440;28;20617;-77
2023/04/12 00:50:09;;;;;;;3.97;1.30;;;10.00;99.90;;;;;;5070870;28;20207;-77
2023/04/12 00:52:37;;;;;;;2.37;1.07;;;9.90;99.90;;;;;;5070661;28;20240;-77
2023/04/12 00:55:04;;;;;;;4.10;1.10;;;10.10;99.90;;;;;;5070836;28;20186;-78
2023/04/12 00:57:38;;;;;;;3.60;1.27;;;10.10;99.90;;;;;;5070675;28;20232;-77
2023/04/12 01:00:12;;;;;;;2.80;1.10;;;9.90;99.90;;;;;;5071378;28;20632;-78
2023/04/12 01:02:41;;;;;;;3.87;1.20;;;9.90;99.90;;;;;;5070914;28;20174;-77
2023/04/12 01:05:07;;;;;;;3.57;1.00;;;9.80;99.90;;;;;;5071266;28;20191;-77
2023/04/12 01:07:37;;;;;;;4.20;1.00;;;9.80;99.90;;;;;;5071115;28;20615;-77
2023/04/12 01:10:12;;;;;;;4.70;1.20;;;9.80;99.90;;;;;;5070914;28;20184;-78
2023/04/12 01:13:40;;;;;;;3.13;1.13;;;9.70;99.90;;;;;;5070272;28;20196;-77
2023/04/12 01:16:13;;;;;;;4.63;1.27;;;9.70;99.90;;;;;;4988655;28;20190;-80
2023/04/12 01:18:44;;;;;;;2.10;1.00;;;9.70;99.90;;;;;;5053106;28;20279;-80
2023/04/12 01:21:15;;;;;;;3.60;1.33;;;9.70;99.90;;;;;;5072054;28;20629;-80
2023/04/12 01:23:53;;;;;;;5.33;1.30;;;9.80;99.90;;;;;;5072797;28;20191;-80
2023/04/12 01:26:56;;;;;;;3.87;1.20;;;9.70;99.90;;;;;;5071707;28;20236;-80
2023/04/12 01:29:25;;;;;;;1.43;0.80;;;9.80;99.90;;;;;;5014632;28;20172;-81
2023/04/12 01:31:56;;;;;;;1.50;1.03;;;9.80;99.90;;;;;;5060645;28;20255;-80
2023/04/12 01:34:24;;;;;;;4.07;1.20;;;9.80;99.90;;;;;;5071466;28;20181;-80
2023/04/12 01:36:51;;;;;;;2.10;0.93;;;9.80;99.90;;;;;;5070811;28;20245;-80
2023/04/12 01:39:17;;;;;;;3.63;1.10;;;9.90;99.90;;;;;;5070628;28;20183;-81
2023/04/12 01:41:44;;;;;;;3.83;1.00;;;9.80;99.90;;;;;;5070364;28;20182;-80
2023/04/12 01:44:14;;;;;;;3.10;1.27;;;9.80;99.90;;;;;;5070777;28;20278;-80
2023/04/12 01:46:40;;;;;;;3.93;1.03;;;9.80;99.90;;;;;;5071700;28;20195;-79
2023/04/12 01:49:06;;;;;;;3.40;1.10;;;9.80;99.90;;;;;;5070848;28;20175;-80
2023/04/12 01:51:54;;;;;;;4.77;1.00;;;9.80;99.90;;;;;;5070442;28;20178;-80
2023/04/12 01:54:26;;;;;;;2.47;1.20;;;9.80;99.90;;;;;;5050089;28;20176;-82
2023/04/12 01:56:58;;;;;;;2.93;1.10;;;9.90;99.90;;;;;;5079557;28;20519;-80
2023/04/12 01:59:41;;;;;;;2.50;0.70;;;9.90;99.90;;;;;;5070059;28;20178;-80
2023/04/12 02:02:11;;;;;;;3.63;0.90;;;9.90;99.90;;;;;;5070079;28;20214;-79
2023/04/12 02:04:37;;;;;;;2.47;1.17;;;9.80;99.90;;;;;;5070178;28;20180;-79
2023/04/12 02:07:03;;;;;;;2.33;1.20;;;9.80;99.90;;;;;;5069856;28;20239;-79
2023/04/12 02:09:29;;;;;;;2.60;1.00;;;9.80;99.90;;;;;;5071358;28;20172;-79
2023/04/12 02:11:55;;;;;;;3.30;1.00;;;9.80;99.90;;;;;;5070016;28;20175;-80
2023/04/12 02:14:21;;;;;;;2.97;1.17;;;9.90;99.90;;;;;;5070279;28;20647;-79
2023/04/12 02:16:47;;;;;;;3.43;2.00;;;9.90;99.90;;;;;;5070502;28;20171;-79
2023/04/12 02:19:13;;;;;;;2.03;0.90;;;9.90;99.90;;;;;;5070493;28;20262;-78
2023/04/12 02:21:43;;;;;;;2.20;1.00;;;9.80;99.90;;;;;;5071341;28;20548;-79
2023/04/12 02:24:10;;;;;;;2.33;1.10;;;9.80;99.90;;;;;;5070125;28;20544;-79
2023/04/12 02:26:38;;;;;;;4.23;1.10;;;9.70;99.90;;;;;;5071881;28;20191;-80
2023/04/12 02:29:08;;;;;;;1.90;0.90;;;9.70;99.90;;;;;;5073482;28;20176;-79
2023/04/12 02:31:35;;;;;;;2.13;1.00;;;9.80;99.90;;;;;;5073068;28;20266;-79
2023/04/12 02:34:01;;;;;;;2.30;1.13;;;9.80;99.90;;;;;;5073944;28;20200;-79
2023/04/12 02:36:28;;;;;;;1.73;0.80;;;9.80;99.90;;;;;;5074158;28;20698;-80
2023/04/12 02:38:55;;;;;;;3.07;1.33;;;9.90;99.90;;;;;;5073842;28;20214;-80
2023/04/12 02:41:21;;;;;;;3.43;1.03;;;9.90;99.90;;;;;;5073261;28;20197;-80
2023/04/12 02:43:47;;;;;;;1.80;0.63;;;9.80;99.90;;;;;;5073258;28;20187;-80
2023/04/12 02:46:22;;;;;;;2.60;1.53;;;9.90;99.90;;;;;;5074058;28;20282;-78
2023/04/12 02:48:48;;;;;;;3.57;1.40;;;9.90;99.90;;;;;;5073703;28;20193;-80
2023/04/12 02:51:14;;;;;;;2.90;0.83;;;9.90;99.90;;;;;;5073960;28;20667;-80
2023/04/12 02:53:42;;;;;;;1.23;0.80;;;9.90;99.90;;;;;;5074520;28;20167;-80
2023/04/12 02:56:09;;;;;;;2.10;0.80;;;9.80;99.90;;;;;;5073692;28;20258;-80
2023/04/12 02:58:39;;;;;;;3.57;1.53;;;9.80;99.90;;;;;;5074548;28;20225;-78
2023/04/12 03:01:07;;;;;;;3.43;1.10;;;9.80;99.90;;;;;;5087770;28;20272;-80
2023/04/12 03:03:34;;;;;;;2.60;0.87;;;9.90;99.90;;;;;;5072861;28;20179;-81
2023/04/12 03:06:00;;;;;;;4.07;0.90;;;9.80;99.90;;;;;;5073325;28;20187;-79
2023/04/12 03:08:26;;;;;;;3.43;1.40;;;9.80;99.90;;;;;;5074561;28;20164;-79
2023/04/12 03:10:52;;;;;;;1.43;0.70;;;9.90;99.90;;;;;;5074680;28;20284;-79
2023/04/12 03:13:18;;;;;;;2.97;1.10;;;10.00;99.90;;;;;;5074410;28;20258;-79
2023/04/12 03:15:46;;;;;;;4.07;0.93;;;10.00;99.90;;;;;;5075473;28;20171;-79
2023/04/12 03:18:13;;;;;;;3.90;0.90;;;10.00;99.90;;;;;;5075425;28;20172;-79
2023/04/12 03:20:42;;;;;;;1.60;0.70;;;10.00;99.90;;;;;;5074183;28;20202;-79
2023/04/12 03:23:08;;;;;;;1.27;0.60;;;9.80;99.90;;;;;;5074972;28;20160;-79
2023/04/12 03:25:36;;;;;;;1.50;0.50;;;9.90;99.90;;;;;;5073668;28;20496;-80
2023/04/12 03:28:01;;;;;;;1.00;0.63;;;9.90;99.90;;;;;;5072975;28;20178;-79
2023/04/12 03:30:27;;;;;;;0.97;0.83;;;9.90;99.90;;;;;;5073987;28;20171;-80
2023/04/12 03:32:53;;;;;;;1.47;0.70;;;9.80;99.90;;;;;;5072681;28;20202;-79
2023/04/12 03:35:19;;;;;;;1.50;0.60;;;9.90;99.90;;;;;;5072105;28;20175;-79
2023/04/12 03:37:45;;;;;;;0.97;0.53;;;9.90;99.90;;;;;;5072809;28;20168;-79
2023/04/12 03:40:11;;;;;;;1.37;0.70;;;9.90;99.90;;;;;;5071655;28;20172;-79
2023/04/12 03:42:36;;;;;;;1.80;0.70;;;9.90;99.90;;;;;;5072184;28;20174;-79
2023/04/12 03:45:02;;;;;;;2.53;0.80;;;9.90;99.90;;;;;;5072353;28;20175;-79
2023/04/12 03:47:28;;;;;;;1.30;0.97;;;9.90;99.90;;;;;;5072639;28;20218;-79
2023/04/12 03:49:55;;;;;;;1.40;0.43;;;9.90;99.90;;;;;;5072371;28;20180;-79
2023/04/12 03:52:20;;;;;;;1.43;0.60;;;9.80;99.90;;;;;;5072296;28;20178;-79
2023/04/12 03:54:46;;;;;;;1.73;0.80;;;9.70;99.90;;;;;;5073959;28;20167;-79
2023/04/12 03:57:12;;;;;;;1.07;0.60;;;9.70;99.90;;;;;;5072204;28;20200;-80
2023/04/12 03:59:37;;;;;;;0.50;0.40;;;9.70;99.90;;;;;;5071561;28;20180;-80
2023/04/12 04:02:04;;;;;;;1.67;0.70;;;9.70;99.90;;;;;;5063629;28;20192;-81
2023/04/12 04:04:30;;;;;;;1.17;0.63;;;9.80;99.90;;;;;;5066318;28;20541;-80
2023/04/12 04:06:55;;;;;;;1.57;1.00;;;9.70;99.90;;;;;;5072179;28;20218;-79
2023/04/12 04:09:22;;;;;;;1.03;0.57;;;9.70;99.90;;;;;;5073714;28;20241;-79
2023/04/12 04:11:49;;;;;;;0.80;0.53;;;9.90;99.90;;;;;;5072607;28;20177;-79
2023/04/12 04:14:15;;;;;;;1.10;0.70;;;10.00;99.90;;;;;;5072055;28;20258;-79
2023/04/12 04:16:41;;;;;;;1.10;0.77;;;10.00;99.90;;;;;;5074033;28;20258;-79
2023/04/12 04:19:07;;;;;;;0.87;0.53;;;10.10;99.90;;;;;;5072888;28;20172;-79
2023/04/12 04:21:33;;;;;;;2.20;0.53;;;9.90;99.90;;;;;;5071911;28;20178;-79
2023/04/12 04:24:02;;;;;;;2.87;0.77;;;9.80;99.90;;;;;;5071834;28;20172;-80
2023/04/12 04:26:34;;;;;;;0.97;0.50;;;9.90;99.90;;;;;;5071573;28;20714;-82
2023/04/12 04:29:03;;;;;;;0.93;0.50;;;9.80;99.90;;;;;;5071470;28;20176;-80
2023/04/12 04:31:33;;;;;;;1.20;0.67;;;9.80;99.90;;;;;;5071367;28;20183;-79
2023/04/12 04:34:04;;;;;;;1.37;0.60;;;9.90;99.90;;;;;;5071591;28;20209;-80
2023/04/12 04:36:33;;;;;;;2.73;0.60;;;10.10;99.90;;;;;;5071637;28;20183;-81
2023/04/12 04:38:58;;;;;;;0.80;0.80;;;10.10;99.90;;;;;;5071895;28;20178;-80
2023/04/12 04:41:25;;;;;;;0.97;0.70;;;10.00;99.90;;;;;;5072739;28;20167;-81
2023/04/12 04:43:52;;;;;;;0.70;0.60;;;10.00;99.90;;;;;;5071460;28;20195;-77
2023/04/12 04:46:22;;;;;;;3.07;0.77;;;9.90;99.90;;;;;;5071078;28;20222;-78
2023/04/12 04:48:50;;;;;;;1.23;0.50;;;9.90;99.90;;;;;;5070724;28;20217;-78
2023/04/12 04:51:16;;;;;;;0.90;0.80;;;10.00;99.90;;;;;;5070923;28;20186;-77
2023/04/12 04:53:43;;;;;;;1.63;0.77;;;10.00;99.90;;;;;;5071371;28;20517;-77
2023/04/12 04:56:10;;;;;;;2.40;0.90;;;10.00;99.90;;;;;;5071377;28;20520;-78
2023/04/12 04:58:36;;;;;;;1.53;0.63;;;10.00;99.90;;;;;;5071155;28;20503;-78
2023/04/12 05:01:04;;;;;;;1.60;1.00;;;9.90;99.90;;;;;;5070628;28;20183;-79
2023/04/12 05:03:33;;;;;;;1.07;0.90;;;10.00;99.90;;;;;;5070468;28;20175;-77
2023/04/12 05:06:00;;;;;;;1.33;0.83;;;10.00;99.90;;;;;;5069809;28;20226;-78
2023/04/12 05:08:27;;;;;;;1.00;0.70;;;10.10;99.90;;;;;;5070524;28;20175;-78
2023/04/12 05:10:54;;;;;;;0.70;0.70;;;10.20;99.90;;;;;;5071028;28;20182;-77
2023/04/12 05:13:21;;;;;;;1.33;0.87;;;10.40;99.90;;;;;;5071112;28;20171;-77
2023/04/12 05:15:47;;;;;;;1.97;1.10;;;10.60;99.90;;;;;;5070976;28;20261;-78
2023/04/12 05:18:14;;;;;;;2.60;0.80;;;10.60;99.90;;;;;;5070293;28;20175;-78
2023/04/12 05:20:40;;;;;;;4.50;0.90;;;10.50;99.90;;;;;;5071557;28;20214;-77
2023/04/12 05:23:08;;;;;;;2.40;0.70;;;10.20;99.90;;;;;;5071345;28;20181;-77
2023/04/12 05:25:48;;;;;;;4.03;1.30;;;10.20;99.90;;;;;;5071709;28;20200;-77
2023/04/12 05:28:21;;;;;;;5.30;1.10;;;10.40;99.90;;;;;;5072869;28;20163;-76
2023/04/12 05:30:58;;;;;;;3.50;1.10;;;10.40;99.90;;;;;;5070949;28;20178;-76
2023/04/12 05:33:23;;;;;;;4.00;1.10;;;10.40;99.90;;;;;;5072420;28;20187;-76
2023/04/12 05:36:00;;;;;;;4.00;1.20;;;10.50;99.90;;;;;;5072599;28;20503;-78
2023/04/12 05:38:28;;;;;;;1.57;1.10;;;10.50;99.90;;;;;;5071216;28;20178;-77
2023/04/12 05:40:54;;;;;;;7.00;1.60;;;10.50;99.90;;;;;;5070591;28;20181;-78
2023/04/12 05:43:19;;;;;;;7.47;1.20;;;10.50;99.90;;;;;;5069592;28;20171;-77
2023/04/12 05:46:08;;;;;;;2.73;1.10;;;10.60;99.90;;;;;;5070820;28;20714;-79
2023/04/12 05:48:38;;;;;;;6.50;1.50;;;10.50;99.90;;;;;;5072020;28;20616;-77
2023/04/12 05:51:16;;;;;;;8.00;1.43;;;10.40;99.90;;;;;;5071688;28;20169;-78
2023/04/12 05:53:45;;;;;;;4.97;1.30;;;10.50;99.90;;;;;;5071549;28;20167;-77
2023/04/12 05:56:15;;;;;;;6.93;1.83;;;10.60;99.90;;;;;;5071232;28;20266;-77
2023/04/12 05:58:41;;;;;;;9.63;2.23;;;10.70;99.90;;;;;;5071550;28;20156;-77
2023/04/12 06:01:10;;;;;;;7.77;1.63;;;10.60;99.90;;;;;;5070963;28;20167;-78
2023/04/12 06:03:40;;;;;;;10.53;1.90;;;10.70;99.90;;;;;;5073114;28;20175;-78
2023/04/12 06:06:08;;;;;;;8.00;1.53;;;10.80;99.90;;;;;;5075358;28;20562;-77
2023/04/12 06:08:37;;;;;;;7.17;1.90;;;10.80;99.90;;;;;;5075145;28;20171;-77
2023/04/12 06:11:04;;;;;;;7.20;2.07;;;10.60;99.90;;;;;;5077386;28;20513;-77
2023/04/12 06:13:37;;;;;;;16.13;1.87;;;10.60;99.90;;;;;;5072029;28;20170;-78
2023/04/12 06:16:03;;;;;;;5.80;1.77;;;10.60;99.90;;;;;;5074873;28;20176;-74
2023/04/12 06:18:29;;;;;;;6.70;1.90;;;10.70;99.90;;;;;;5069598;28;20511;-75
2023/04/12 06:20:54;;;;;;;9.43;2.03;;;10.70;99.90;;;;;;5075812;28;20161;-74
2023/04/12 06:23:21;;;;;;;5.53;1.80;;;10.60;99.90;;;;;;5074258;28;20536;-74
2023/04/12 06:25:49;;;;;;;11.37;1.50;;;10.60;99.90;;;;;;5074580;28;20325;-74
2023/04/12 06:28:16;;;;;;;12.10;2.17;;;10.40;99.90;;;;;;5075665;28;20171;-74
2023/04/12 06:30:45;;;;;;;6.97;2.10;;;10.30;99.90;;;;;;5074183;28;20156;-76
2023/04/12 06:33:12;;;;;;;14.27;2.30;;;10.30;99.90;;;;;;5074564;28;20166;-76
2023/04/12 06:35:48;;;;;;;9.80;2.17;;;10.30;99.90;;;;;;5075584;28;20651;-76
2023/04/12 06:38:15;;;;;;;5.63;1.70;;;10.40;99.90;;;;;;5073157;28;20179;-76
2023/04/12 06:40:43;;;;;;;7.43;1.40;;;10.20;99.90;;;;;;5074595;28;20627;-76
2023/04/12 06:43:09;;;;;;;7.93;1.43;;;10.10;99.90;;;;;;5074502;28;20632;-76
2023/04/12 06:45:37;;;;;;;11.43;2.13;;;9.90;99.90;;;;;;5074215;28;20195;-78
2023/04/12 06:48:05;;;;;;;7.63;1.40;;;9.90;99.90;;;;;;5075609;28;20197;-76
2023/04/12 06:50:31;;;;;;;7.90;1.50;;;10.10;99.90;;;;;;5074344;28;20182;-76
2023/04/12 06:52:56;;;;;;;11.33;1.60;;;10.00;99.90;;;;;;5074507;28;20153;-76
2023/04/12 06:55:22;;;;;;;15.13;1.70;;;10.10;99.90;;;;;;5074923;28;20188;-78
2023/04/12 06:57:50;;;;;;;12.00;1.50;;;10.10;99.90;;;;;;5073165;28;20700;-77
2023/04/12 07:00:16;;;;;;;15.50;1.67;;;10.20;99.90;;;;;;5075177;28;20605;-77
2023/04/12 07:02:42;;;;;;;11.57;1.70;;;10.10;99.90;;;;;;5073980;28;20169;-77
2023/04/12 07:05:07;;;;;;;8.97;2.57;;;10.10;99.90;;;;;;5075468;28;20166;-77
2023/04/12 07:07:34;;;;;;;12.53;1.47;;;10.10;99.90;;;;;;5075714;28;20606;-77
2023/04/12 07:10:00;;;;;;;7.60;1.27;;;10.30;99.90;;;;;;5074182;28;20171;-77
2023/04/12 07:12:25;;;;;;;5.37;1.40;;;10.30;99.90;;;;;;5073909;28;20163;-77
2023/04/12 07:14:52;;;;;;;5.27;1.63;;;10.40;99.90;;;;;;5073299;28;20202;-77
2023/04/12 07:17:17;;;;;;;5.77;1.37;;;10.50;99.90;;;;;;5073573;28;20667;-77
2023/04/12 07:19:44;;;;;;;8.13;1.43;;;10.30;99.90;;;;;;5073581;28;20214;-76
2023/04/12 07:22:10;;;;;;;15.43;1.87;;;10.30;99.90;;;;;;5074537;28;20167;-77
2023/04/12 07:24:37;;;;;;;6.70;1.70;;;10.30;99.90;;;;;;5074447;28;20156;-76
2023/04/12 07:27:03;;;;;;;6.70;1.67;;;10.50;99.90;;;;;;5074169;28;20207;-76
2023/04/12 07:29:28;;;;;;;10.80;2.00;;;10.70;99.90;;;;;;5074196;28;20160;-76
2023/04/12 07:31:55;;;;;;;7.37;1.90;;;10.70;99.90;;;;;;5074576;28;20580;-76
2023/04/12 07:34:20;;;;;;;10.50;2.10;;;10.60;99.90;;;;;;5074532;28;20635;-76
2023/04/12 07:36:46;;;;;;;9.90;1.60;;;10.60;99.90;;;;;;5073216;28;20175;-77
2023/04/12 07:39:12;;;;;;;7.73;1.57;;;10.70;99.90;;;;;;5074169;28;20683;-77
2023/04/12 07:41:39;;;;;;;7.80;1.57;;;10.60;99.90;;;;;;5074086;28;20167;-77
2023/04/12 07:44:05;;;;;;;10.00;1.83;;;10.50;99.90;;;;;;5074409;28;20196;-77
2023/04/12 07:46:31;;;;;;;10.83;1.97;;;10.80;99.90;;;;;;5072613;28;20201;-76
2023/04/12 07:48:57;;;;;;;6.47;1.77;;;11.20;99.90;;;;;;5073822;28;20167;-77
2023/04/12 07:51:22;;;;;;;7.17;1.80;;;11.50;99.90;;;;;;5072626;28;20165;-77
2023/04/12 07:53:48;;;;;;;7.77;1.80;;;11.40;99.90;;;;;;5072456;28;20166;-77
2023/04/12 07:56:14;;;;;;;10.17;1.63;;;11.50;99.90;;;;;;5073581;28;20170;-77
2023/04/12 07:58:41;;;;;;;8.20;1.80;;;11.50;99.90;;;;;;5073759;28;20182;-76
2023/04/12 08:01:06;;;;;;;9.97;2.40;;;11.80;99.90;;;;;;5072423;28;20170;-76
2023/04/12 08:03:32;;;;;;;6.80;1.80;;;11.70;99.90;;;;;;5072401;28;20177;-76
2023/04/12 08:05:58;;;;;;;6.33;1.53;;;11.60;99.90;;;;;;5073513;28;20182;-78
2023/04/12 08:08:24;;;;;;;11.80;2.20;;;11.50;99.90;;;;;;5072583;28;20190;-78
2023/04/12 08:10:51;;;;;;;9.93;1.60;;;11.60;99.90;;;;;;5073341;28;20176;-77
2023/04/12 08:13:17;;;;;;;9.27;1.90;;;11.40;99.90;;;;;;5073681;28;20201;-76
2023/04/12 08:15:43;;;;;;;7.70;1.60;;;11.40;99.90;;;;;;5073427;28;20192;-76
2023/04/12 08:18:09;;;;;;;11.43;2.37;;;11.50;99.90;;;;;;5071986;28;20175;-76
2023/04/12 08:20:35;;;;;;;9.63;1.83;;;11.50;99.90;;;;;;5073226;28;20196;-77
2023/04/12 08:23:01;;;;;;;8.80;1.80;;;11.70;99.90;;;;;;5073256;28;20221;-77
2023/04/12 08:25:26;;;;;;;10.87;2.97;;;11.70;99.90;;;;;;5072431;28;20240;-77
2023/04/12 08:27:53;;;;;;;9.97;2.27;;;12.00;99.90;;;;;;5071808;28;20160;-78
2023/04/12 08:30:18;;;;;;;6.90;1.70;;;12.40;99.90;;;;;;5073091;28;20152;-77
2023/04/12 08:32:44;;;;;;;7.47;1.97;;;12.70;99.90;;;;;;5073107;28;20164;-78
2023/04/12 08:35:10;;;;;;;8.70;1.63;;;12.70;99.90;;;;;;5072847;28;20220;-78
2023/04/12 08:37:36;;;;;;;9.67;2.00;;;12.90;99.90;;;;;;5073107;28;20422;-77
2023/04/12 08:40:05;;;;;;;10.63;2.43;;;12.90;99.90;;;;;;5072687;28;20246;-77
2023/04/12 08:42:35;;;;;;;8.17;2.27;;;12.90;99.90;;;;;;5073228;28;20168;-76
2023/04/12 08:45:04;;;;;;;14.13;2.33;;;12.60;99.90;;;;;;5072887;28;20175;-77
2023/04/12 08:47:33;;;;;;;7.10;2.03;;;12.80;99.90;;;;;;5073239;28;20197;-78
2023/04/12 08:50:01;;;;;;;8.17;1.77;;;12.60;99.90;;;;;;5072995;28;20537;-76
2023/04/12 08:52:27;;;;;;;13.93;2.20;;;12.30;99.90;;;;;;5071945;28;20250;-77
2023/04/12 08:54:54;;;;;;;9.17;1.90;;;12.40;99.90;;;;;;5072857;28;20242;-77
2023/04/12 08:57:20;;;;;;;8.67;2.10;;;12.30;99.90;;;;;;5071920;28;20244;-77
2023/04/12 08:59:49;;;;;;;7.17;2.07;;;12.20;99.90;;;;;;5073155;28;20185;-77
2023/04/12 09:02:15;;;;;;;9.60;2.60;;;12.30;99.90;;;;;;5072635;28;20152;-77
2023/04/12 09:04:51;;;;;;;6.60;2.20;;;12.40;99.90;;;;;;5072768;28;20589;-77
2023/04/12 09:07:29;;;;;;;6.47;1.93;;;12.40;99.90;;;;;;5072535;28;20204;-77
2023/04/12 09:09:56;;;;;;;11.43;2.40;;;12.40;99.90;;;;;;5072315;28;20218;-77
2023/04/12 09:12:23;;;;;;;10.77;1.93;;;12.60;99.90;;;;;;5072479;28;20594;-77
2023/04/12 09:15:12;;;;;;;7.80;2.17;;;12.80;99.90;;;;;;5071430;28;20167;-77
2023/04/12 09:17:39;;;;;;;8.50;1.97;;;13.10;99.90;;;;;;5072471;28;20220;-77
2023/04/12 09:20:11;;;;;;;9.77;1.97;;;12.90;99.90;;;;;;5072354;28;20665;-77
2023/04/12 09:22:43;;;;;;;9.40;1.90;;;12.90;99.90;;;;;;5072604;28;20162;-77
2023/04/12 09:25:10;;;;;;;17.97;2.87;;;12.90;99.90;;;;;;5072287;28;20167;-77
2023/04/12 09:27:50;;;;;;;9.47;2.07;;;13.00;99.90;;;;;;5072479;28;20144;-77
2023/04/12 09:30:19;;;;;;;10.07;2.20;;;13.00;99.90;;;;;;5072484;28;20171;-78
2023/04/12 09:32:44;;;;;;;10.03;2.50;;;12.90;99.90;;;;;;5071201;28;20643;-77
2023/04/12 09:35:10;;;;;;;9.53;2.27;;;13.00;99.90;;;;;;5071167;28;20205;-78
2023/04/12 09:37:37;;;;;;;7.50;1.97;;;13.10;99.90;;;;;;5072643;28;20200;-78
2023/04/12 09:40:05;;;;;;;10.57;2.40;;;13.00;99.90;;;;;;5076361;28;20162;-78
2023/04/12 09:42:33;;;;;;;11.93;2.10;;;13.00;99.90;;;;;;5074803;28;20484;-77
2023/04/12 09:45:00;;;;;;;14.27;2.20;;;13.10;99.90;;;;;;5074798;28;20193;-77
2023/04/12 09:47:39;;;;;;;11.43;1.97;;;13.00;99.90;;;;;;5076689;28;20155;-78
2023/04/12 09:50:06;;;;;;;10.50;2.10;;;12.80;99.90;;;;;;5076475;28;20636;-78
2023/04/12 09:52:37;;;;;;;11.37;2.37;;;12.80;99.90;;;;;;5074995;28;20166;-77
2023/04/12 09:55:09;;;;;;;7.73;2.07;;;12.80;99.90;;;;;;5076235;28;20170;-77
2023/04/12 09:57:43;;;;;;;10.90;2.87;;;12.80;99.90;;;;;;5074608;28;20340;-77
2023/04/12 10:00:16;;;;;;;15.77;2.40;;;12.80;99.90;;;;;;5075949;28;20180;-78
2023/04/12 10:02:45;;;;;;;7.30;1.73;;;12.90;99.90;;;;;;5075864;28;20152;-78
2023/04/12 10:05:12;;;;;;;8.30;1.73;;;13.00;99.90;;;;;;5074711;28;20170;-78
2023/04/12 10:07:41;;;;;;;8.63;1.90;;;13.00;99.90;;;;;;5075118;28;20276;-77
2023/04/12 10:10:11;;;;;;;7.03;1.53;;;12.90;99.90;;;;;;5074182;28;20174;-77
2023/04/12 10:12:37;;;;;;;8.00;1.80;;;13.10;99.90;;;;;;5074140;28;20174;-77
2023/04/12 10:15:16;;;;;;;9.90;1.93;;;13.20;99.90;;;;;;5074325;28;20570;-78
2023/04/12 10:17:46;;;;;;;9.37;1.77;;;13.40;99.90;;;;;;5075598;28;20691;-77
2023/04/12 10:20:14;;;;;;;6.80;2.00;;;13.30;99.90;;;;;;5074198;28;20172;-77
2023/04/12 10:22:52;;;;;;;11.30;2.10;;;13.10;99.90;;;;;;5075335;28;20684;-77
2023/04/12 10:25:26;;;;;;;14.10;2.50;;;13.00;99.90;;;;;;5074538;28;20174;-76
2023/04/12 10:27:52;;;;;;;10.53;2.30;;;12.90;99.90;;;;;;5074238;28;20171;-77
2023/04/12 10:30:26;;;;;;;6.50;2.00;;;12.60;99.90;;;;;;5074169;28;20171;-78
2023/04/12 10:33:04;;;;;;;9.43;2.03;;;12.40;99.90;;;;;;5075434;28;20166;-78
2023/04/12 10:35:55;;;;;;;10.87;1.97;;;12.00;99.90;;;;;;5074508;28;20627;-79
2023/04/12 10:38:23;;;;;;;7.83;1.90;;;12.20;99.90;;;;;;5075816;28;20636;-76
2023/04/12 10:41:17;;;;;;;12.17;2.03;;;12.40;99.90;;;;;;5075532;28;20162;-78
2023/04/12 10:43:48;;;;;;;8.17;2.23;;;12.40;99.90;;;;;;5075331;28;20187;-78
2023/04/12 10:46:45;;;;;;;12.03;2.10;;;12.50;99.90;;;;;;5075343;28;20191;-78
2023/04/12 10:49:15;;;;;;;9.03;1.97;;;12.80;99.90;;;;;;5073489;28;20261;-77
2023/04/12 10:52:02;;;;;;;9.67;2.00;;;13.20;99.90;;;;;;5075030;28;20162;-78
2023/04/12 10:54:28;;;;;;;9.77;2.53;;;13.60;99.90;;;;;;5074303;28;20539;-77
2023/04/12 10:56:54;;;;;;;11.30;2.10;;;14.00;99.90;;;;;;5073908;28;20238;-79
2023/04/12 10:59:19;;;;;;;12.00;2.40;;;14.10;99.90;;;;;;5074946;28;20254;-78
2023/04/12 11:02:07;;;;;;;7.73;1.93;;;14.40;99.90;;;;;;5074933;28;20235;-77
2023/04/12 11:04:34;;;;;;;10.50;2.10;;;14.50;99.90;;;;;;5074462;28;20175;-77
2023/04/12 11:07:06;;;;;;;7.67;1.97;;;14.40;99.90;;;;;;5074610;28;20199;-77
2023/04/12 11:09:41;;;;;;;9.93;2.37;;;14.50;99.90;;;;;;5074709;28;20154;-77
2023/04/12 11:12:07;;;;;;;11.97;1.90;;;14.40;99.90;;;;;;5073351;28;20159;-77
2023/04/12 11:14:41;;;;;;;7.50;2.27;;;14.30;99.90;;;;;;5074611;28;20168;-77
2023/04/12 11:17:07;;;;;;;8.47;1.70;;;14.20;99.90;;;;;;5074941;28;20169;-77
2023/04/12 11:19:35;;;;;;;13.07;2.23;;;14.30;99.90;;;;;;5073333;28;20624;-77
2023/04/12 11:22:03;;;;;;;9.33;2.00;;;14.30;99.90;;;;;;5074626;28;20216;-76
2023/04/12 11:24:28;;;;;;;8.40;1.90;;;14.10;99.90;;;;;;5073296;28;20179;-77
2023/04/12 11:26:56;;;;;;;10.10;1.90;;;14.00;99.90;;;;;;5074736;28;20295;-76
2023/04/12 11:29:27;;;;;;;7.87;2.00;;;14.30;99.90;;;;;;5074386;28;20155;-77
2023/04/12 11:31:54;;;;;;;10.63;2.13;;;14.40;99.90;;;;;;5074447;28;20144;-77
2023/04/12 11:34:21;;;;;;;7.83;1.80;;;14.50;99.90;;;;;;5073877;28;20231;-77
2023/04/12 11:36:50;;;;;;;7.60;1.60;;;14.50;99.90;;;;;;5074221;28;20187;-78
2023/04/12 11:39:17;;;;;;;10.10;2.03;;;14.70;99.90;;;;;;5074174;28;20163;-78
2023/04/12 11:41:47;;;;;;;5.03;1.03;;;14.30;99.90;;;;;;5072992;28;20171;-78
2023/04/12 11:44:17;;;;;;;8.00;1.80;;;13.60;99.90;;;;;;5073900;28;20647;-77
2023/04/12 11:46:44;;;;;;;7.57;1.70;;;12.80;99.90;;;;;;5073779;28;20615;-77
2023/04/12 11:49:16;;;;;;;7.40;1.63;;;12.00;99.90;;;;;;5072760;28;20205;-77
2023/04/12 11:51:41;;;;;;;9.23;1.97;;;11.40;99.90;;;;;;5074046;28;20169;-78
2023/04/12 11:54:07;;;;;;;5.77;1.70;;;11.10;99.90;;;;;;5074051;28;20524;-77
2023/04/12 11:56:32;;;;;;;8.27;1.50;;;10.60;99.90;;;;;;5074194;28;20167;-77
2023/04/12 11:58:58;;;;;;;9.70;1.67;;;10.10;99.90;;;;;;5074154;28;20614;-76
2023/04/12 12:01:26;;;;;;;8.80;1.40;;;9.90;99.90;;;;;;5072750;28;20222;-78
2023/04/12 12:03:52;;;;;;;6.70;1.43;;;9.80;99.90;;;;;;5073596;28;20626;-78
2023/04/12 12:06:18;;;;;;;4.70;0.90;;;9.70;99.90;;;;;;5073655;28;20266;-77
2023/04/12 12:08:45;;;;;;;4.33;1.00;;;9.80;99.90;;;;;;5073814;28;20167;-77
2023/04/12 12:11:14;;;;;;;4.30;1.00;;;9.90;99.90;;;;;;5073403;28;20204;-78
2023/04/12 12:13:50;;;;;;;5.13;1.37;;;10.20;99.90;;;;;;5073632;28;20171;-77
2023/04/12 12:16:17;;;;;;;3.73;1.10;;;10.30;99.90;;;;;;5072289;28;20175;-77
2023/04/12 12:18:45;;;;;;;5.17;1.23;;;10.50;99.90;;;;;;5072303;28;20623;-77
2023/04/12 12:21:18;;;;;;;4.67;1.50;;;10.80;99.90;;;;;;5110478;27;20543;-77
2023/04/12 12:23:45;;;;;;;3.43;1.33;;;11.10;99.90;;;;;;5110884;28;20582;-77
2023/04/12 12:26:22;;;;;;;7.17;1.40;;;11.30;99.90;;;;;;5110304;28;20253;-77
2023/04/12 12:28:50;;;;;;;4.67;1.50;;;11.50;99.90;;;;;;5110734;28;20161;-77
2023/04/12 12:31:20;;;;;;;6.10;1.27;;;11.70;99.90;;;;;;5108734;28;20200;-76
2023/04/12 12:33:45;;;;;;;6.23;1.30;;;11.70;99.90;;;;;;5110478;28;20171;-76
2023/04/12 12:36:19;;;;;;;6.70;1.73;;;11.60;99.90;;;;;;5110146;28;20206;-77
2023/04/12 12:38:45;;;;;;;5.80;1.20;;;11.80;99.90;;;;;;5108838;28;20169;-78
2023/04/12 12:41:22;;;;;;;5.07;1.27;;;12.00;99.90;;;;;;5108686;28;20191;-78
2023/04/12 12:43:51;;;;;;;5.80;1.60;;;12.30;99.90;;;;;;5110257;28;20152;-77
2023/04/12 12:46:19;;;;;;;3.77;1.03;;;12.30;99.90;;;;;;5108566;28;20156;-77
2023/04/12 12:48:46;;;;;;;6.07;1.37;;;12.40;99.90;;;;;;5110735;28;20679;-77
2023/04/12 12:51:16;;;;;;;5.80;1.50;;;12.40;99.90;;;;;;5108704;28;20177;-77
2023/04/12 12:53:42;;;;;;;7.27;1.43;;;12.40;99.90;;;;;;5110543;28;20162;-77
2023/04/12 12:56:09;;;;;;;7.97;2.23;;;12.40;99.90;;;;;;5110130;28;20184;-77